createdAt,value
2022-12-05T00:01:47.855Z,98574.58
2022-12-05T00:04:51.261Z,98578.73
2022-12-05T00:07:54.280Z,98582.30
2022-12-05T00:11:18.254Z,98581.98
2022-12-05T00:14:21.205Z,98579.59
2022-12-05T00:17:24.164Z,98573.95
2022-12-05T00:20:27.062Z,98576.45
2022-12-05T00:23:30.057Z,98571.55
2022-12-05T00:26:33.453Z,98560.07
2022-12-05T00:29:36.779Z,98570.06
2022-12-05T00:32:39.783Z,98570.94
2022-12-05T00:35:42.747Z,98569.08
2022-12-05T00:38:45.774Z,98566.83
2022-12-05T00:41:48.705Z,98568.06
2022-12-05T00:44:51.668Z,98570.34
2022-12-05T00:47:54.644Z,98560.86
2022-12-05T00:51:05.645Z,98562.09
2022-12-05T00:54:14.488Z,98561.08
2022-12-05T00:57:17.440Z,98566.00
2022-12-05T01:00:20.614Z,98563.11
2022-12-05T01:03:23.689Z,98557.39
2022-12-05T01:06:27.924Z,98549.33
2022-12-05T01:09:30.984Z,98543.52
2022-12-05T01:12:33.910Z,98540.45
2022-12-05T01:15:37.545Z,98543.36
2022-12-05T01:18:40.592Z,98539.90
2022-12-05T01:21:44.172Z,98540.21
2022-12-05T01:24:47.086Z,98537.10
2022-12-05T01:27:49.989Z,98541.83
2022-12-05T01:30:52.924Z,98539.91
2022-12-05T01:33:58.624Z,98541.35
2022-12-05T01:37:01.560Z,98536.93
2022-12-05T01:40:05.388Z,98531.89
2022-12-05T01:43:17.702Z,98533.60
2022-12-05T01:46:20.639Z,98531.55
2022-12-05T01:49:30.330Z,98533.36
2022-12-05T01:52:34.051Z,98526.52
2022-12-05T01:55:38.181Z,98520.92
2022-12-05T01:58:43.823Z,98519.69
2022-12-05T02:01:46.948Z,98522.62
2022-12-05T02:05:05.514Z,98530.92
2022-12-05T02:08:11.445Z,98535.27
2022-12-05T02:11:14.740Z,98540.02
2022-12-05T02:14:47.547Z,98541.39
2022-12-05T02:18:08.396Z,98543.49
2022-12-05T02:21:36.823Z,98540.57
2022-12-05T02:25:18.034Z,98545.71
2022-12-05T02:28:45.763Z,98547.49
2022-12-05T02:31:59.632Z,98547.20
2022-12-05T02:35:16.145Z,98552.88
2022-12-05T02:38:30.071Z,98554.66
2022-12-05T02:41:44.119Z,98552.61
2022-12-05T02:45:14.328Z,98554.02
2022-12-05T02:48:18.549Z,98564.53
2022-12-05T02:51:25.329Z,98557.66
2022-12-05T02:54:37.522Z,98552.55
2022-12-05T02:57:45.575Z,98556.73
2022-12-05T03:00:50.438Z,98552.36
2022-12-05T03:03:54.454Z,98550.39
2022-12-05T03:07:06.159Z,98554.86
2022-12-05T03:10:10.874Z,98551.63
2022-12-05T03:13:24.384Z,98552.76
2022-12-05T03:16:38.603Z,98556.11
2022-12-05T03:20:04.838Z,98549.81
2022-12-05T03:23:31.136Z,98542.64
2022-12-05T03:27:26.681Z,98540.84
2022-12-05T03:30:32.770Z,98540.54
2022-12-05T03:33:42.580Z,98530.49
2022-12-05T03:36:51.160Z,98534.75
2022-12-05T03:40:20.495Z,98535.78
2022-12-05T03:43:38.355Z,98533.88
2022-12-05T03:46:48.109Z,98532.14
2022-12-05T03:49:56.644Z,98532.61
2022-12-05T03:53:19.583Z,98525.44
2022-12-05T03:56:31.773Z,98521.45
2022-12-05T03:59:54.469Z,98521.30
2022-12-05T04:03:02.885Z,98518.27
2022-12-05T04:06:28.850Z,98506.95
2022-12-05T04:09:37.793Z,98504.05
2022-12-05T04:12:44.681Z,98501.47
2022-12-05T04:16:17.457Z,98500.53
2022-12-05T04:19:28.543Z,98497.96
2022-12-05T04:22:32.635Z,98496.81
2022-12-05T04:26:11.395Z,98498.02
2022-12-05T04:29:27.207Z,98502.59
2022-12-05T04:32:57.676Z,98494.16
2022-12-05T04:36:19.187Z,98495.30
2022-12-05T04:39:42.975Z,98493.86
2022-12-05T04:42:49.806Z,98492.58
2022-12-05T04:45:55.692Z,98490.80
2022-12-05T04:49:06.566Z,98491.77
2022-12-05T04:52:12.399Z,98493.30
2022-12-05T04:55:20.667Z,98502.42
2022-12-05T04:58:26.665Z,98511.21
2022-12-05T05:01:48.630Z,98508.89
2022-12-05T05:04:55.663Z,98512.45
2022-12-05T05:07:58.677Z,98502.06
2022-12-05T05:11:12.890Z,98495.31
2022-12-05T05:14:15.884Z,98493.30
2022-12-05T05:17:18.827Z,98493.98
2022-12-05T05:20:24.360Z,98500.89
2022-12-05T05:23:27.312Z,98495.66
2022-12-05T05:26:31.754Z,98488.55
2022-12-05T05:29:34.680Z,98495.39
2022-12-05T05:32:37.581Z,98500.03
2022-12-05T05:35:40.507Z,98497.36
2022-12-05T05:38:46.090Z,98494.66
2022-12-05T05:41:49.032Z,98492.50
2022-12-05T05:44:51.911Z,98487.20
2022-12-05T05:47:54.843Z,98481.76
2022-12-05T05:51:01.896Z,98483.52
2022-12-05T05:54:05.027Z,98484.32
2022-12-05T05:57:07.949Z,98481.95
2022-12-05T06:00:11.452Z,98478.12
2022-12-05T06:03:14.752Z,98482.75
2022-12-05T06:06:18.936Z,98479.98
2022-12-05T06:09:21.894Z,98479.74
2022-12-05T06:12:25.000Z,98481.31
2022-12-05T06:15:27.936Z,98481.45
2022-12-05T06:18:30.881Z,98478.42
2022-12-05T06:21:33.857Z,98473.85
2022-12-05T06:24:36.748Z,98478.46
2022-12-05T06:27:39.704Z,98483.08
2022-12-05T06:30:42.684Z,98483.36
2022-12-05T06:33:46.237Z,98478.40
2022-12-05T06:36:49.162Z,98480.77
2022-12-05T06:39:53.117Z,98477.97
2022-12-05T06:42:56.059Z,98475.30
2022-12-05T06:45:59.815Z,98478.23
2022-12-05T06:49:02.789Z,98474.69
2022-12-05T06:52:05.803Z,98478.73
2022-12-05T06:55:09.053Z,98481.69
2022-12-05T06:58:12.129Z,98481.75
2022-12-05T07:01:37.301Z,98489.57
2022-12-05T07:04:40.375Z,98486.34
2022-12-05T07:07:43.389Z,98488.71
2022-12-05T07:10:52.072Z,98496.39
2022-12-05T07:13:55.365Z,98494.46
2022-12-05T07:16:58.310Z,98499.64
2022-12-05T07:20:01.488Z,98502.69
2022-12-05T07:23:04.663Z,98501.77
2022-12-05T07:26:09.678Z,98503.00
2022-12-05T07:29:12.561Z,98502.57
2022-12-05T07:32:15.755Z,98513.88
2022-12-05T07:35:18.743Z,98505.19
2022-12-05T07:38:21.826Z,98511.30
2022-12-05T07:41:30.781Z,98501.33
2022-12-05T07:44:33.877Z,98496.73
2022-12-05T07:47:36.988Z,98487.14
2022-12-05T07:50:39.968Z,98491.29
2022-12-05T07:53:44.591Z,98489.26
2022-12-05T07:56:48.233Z,98492.84
2022-12-05T07:59:51.493Z,98499.71
2022-12-05T08:02:54.824Z,98500.86
2022-12-05T08:06:02.548Z,98499.41
2022-12-05T08:09:05.611Z,98499.77
2022-12-05T08:12:09.194Z,98501.05
2022-12-05T08:15:12.625Z,98499.10
2022-12-05T08:18:15.650Z,98497.77
2022-12-05T08:21:19.866Z,98508.09
2022-12-05T08:24:24.952Z,98501.44
2022-12-05T08:27:28.308Z,98505.42
2022-12-05T08:30:31.536Z,98504.98
2022-12-05T08:33:34.867Z,98509.98
2022-12-05T08:36:37.987Z,98514.27
2022-12-05T08:39:40.971Z,98512.20
2022-12-05T08:42:46.351Z,98515.67
2022-12-05T08:45:53.594Z,98516.85
2022-12-05T08:48:56.666Z,98518.54
2022-12-05T08:51:59.884Z,98517.92
2022-12-05T08:55:02.933Z,98521.81
2022-12-05T08:58:06.175Z,98525.59
2022-12-05T09:01:18.660Z,98520.11
2022-12-05T09:04:21.917Z,98513.48
2022-12-05T09:07:24.936Z,98516.58
2022-12-05T09:10:28.140Z,98514.86
2022-12-05T09:13:31.256Z,98510.01
2022-12-05T09:16:38.875Z,98510.20
2022-12-05T09:19:42.732Z,98508.70
2022-12-05T09:22:45.761Z,98507.65
2022-12-05T09:26:01.646Z,98503.48
2022-12-05T09:29:04.820Z,98499.39
2022-12-05T09:32:08.539Z,98494.33
2022-12-05T09:35:11.645Z,98489.39
2022-12-05T09:38:14.875Z,98491.66
2022-12-05T09:41:45.530Z,98493.00
2022-12-05T09:45:33.168Z,98487.09
2022-12-05T09:48:40.999Z,98477.99
2022-12-05T09:51:53.678Z,98481.05
2022-12-05T09:55:05.558Z,98475.48
2022-12-05T09:58:17.478Z,98477.52
2022-12-05T10:01:42.594Z,98473.66
2022-12-05T10:05:05.026Z,98474.60
2022-12-05T10:08:29.577Z,98471.21
2022-12-05T10:11:39.271Z,98473.88
2022-12-05T10:14:47.891Z,98470.11
2022-12-05T10:17:59.779Z,98466.33
2022-12-05T10:21:15.752Z,98466.34
2022-12-05T10:24:29.694Z,98468.96
2022-12-05T10:27:45.945Z,98471.24
2022-12-05T10:30:51.180Z,98465.04
2022-12-05T10:34:03.127Z,98462.30
2022-12-05T10:37:22.672Z,98461.53
2022-12-05T10:40:45.535Z,98462.00
2022-12-05T10:43:49.290Z,98459.96
2022-12-05T10:46:52.472Z,98459.36
2022-12-05T10:50:00.104Z,98458.78
2022-12-05T10:53:05.003Z,98454.50
2022-12-05T10:56:40.374Z,98459.70
2022-12-05T10:59:47.988Z,98463.08
2022-12-05T11:02:52.348Z,98463.85
2022-12-05T11:06:15.388Z,98469.78
2022-12-05T11:09:23.048Z,98473.05
2022-12-05T11:12:38.217Z,98469.95
2022-12-05T11:15:50.752Z,98469.64
2022-12-05T11:19:24.448Z,98467.20
2022-12-05T11:22:35.686Z,98461.63
2022-12-05T11:25:38.698Z,98467.48
2022-12-05T11:28:41.832Z,98466.25
2022-12-05T11:31:52.385Z,98467.23
2022-12-05T11:35:05.795Z,98465.96
2022-12-05T11:38:12.461Z,98459.28
2022-12-05T11:41:40.913Z,98456.89
2022-12-05T11:44:52.992Z,98453.70
2022-12-05T11:48:12.243Z,98456.70
2022-12-05T11:51:40.871Z,98450.21
2022-12-05T11:55:22.832Z,98449.20
2022-12-05T11:58:54.562Z,98446.66
2022-12-05T12:02:24.236Z,98442.02
2022-12-05T12:05:52.207Z,98435.23
2022-12-05T12:09:16.892Z,98442.02
2022-12-05T12:12:22.764Z,98439.46
2022-12-05T12:15:46.641Z,98442.85
2022-12-05T12:19:02.713Z,98439.29
2022-12-05T12:22:11.604Z,98435.48
2022-12-05T12:25:33.311Z,98433.95
2022-12-05T12:29:27.572Z,98437.27
2022-12-05T12:32:35.776Z,98439.61
2022-12-05T12:35:53.555Z,98436.92
2022-12-05T12:39:14.061Z,98439.16
2022-12-05T12:42:46.283Z,98438.96
2022-12-05T12:46:14.063Z,98433.15
2022-12-05T12:49:36.277Z,98426.92
2022-12-05T12:52:58.788Z,98431.23
2022-12-05T12:56:20.420Z,98428.64
2022-12-05T12:59:49.599Z,98430.48
2022-12-05T13:03:00.805Z,98424.33
2022-12-05T13:06:32.629Z,98423.80
2022-12-05T13:09:40.578Z,98419.21
2022-12-05T13:12:44.820Z,98413.54
2022-12-05T13:15:52.844Z,98414.64
2022-12-05T13:18:57.553Z,98411.85
2022-12-05T13:22:01.003Z,98412.65
2022-12-05T13:25:04.475Z,98416.63
2022-12-05T13:28:26.070Z,98413.84
2022-12-05T13:31:41.327Z,98411.10
2022-12-05T13:34:51.569Z,98418.08
2022-12-05T13:38:13.381Z,98419.16
2022-12-05T13:41:35.613Z,98420.77
2022-12-05T13:44:42.707Z,98428.06
2022-12-05T13:48:09.101Z,98428.77
2022-12-05T13:51:25.017Z,98427.16
2022-12-05T13:54:31.034Z,98426.92
2022-12-05T13:57:39.836Z,98430.83
2022-12-05T14:00:42.910Z,98432.50
2022-12-05T14:03:48.728Z,98437.52
2022-12-05T14:06:51.709Z,98435.20
2022-12-05T14:09:56.044Z,98437.08
2022-12-05T14:13:01.354Z,98438.18
2022-12-05T14:16:25.943Z,98439.21
2022-12-05T14:19:52.193Z,98443.20
2022-12-05T14:23:11.424Z,98442.91
2022-12-05T14:26:32.153Z,98441.09
2022-12-05T14:30:20.656Z,98440.38
2022-12-05T14:33:23.863Z,98440.92
2022-12-05T14:36:31.005Z,98440.50
2022-12-05T14:39:50.324Z,98441.91
2022-12-05T14:43:00.506Z,98443.55
2022-12-05T14:46:08.062Z,98445.52
2022-12-05T14:49:48.883Z,98447.33
2022-12-05T14:53:27.843Z,98444.69
2022-12-05T14:56:34.893Z,98439.26
2022-12-05T14:59:55.345Z,98439.23
2022-12-05T15:02:58.719Z,98436.38
2022-12-05T15:06:05.537Z,98436.77
2022-12-05T15:09:38.771Z,98439.77
2022-12-05T15:12:54.141Z,98438.20
2022-12-05T15:16:07.916Z,98433.36
2022-12-05T15:19:44.050Z,98437.37
2022-12-05T15:22:47.251Z,98443.06
2022-12-05T15:25:57.308Z,98437.98
2022-12-05T15:29:06.920Z,98432.08
2022-12-05T15:32:13.023Z,98428.55
2022-12-05T15:35:16.791Z,98429.09
2022-12-05T15:38:28.023Z,98431.50
2022-12-05T15:41:31.533Z,98429.45
2022-12-05T15:44:40.575Z,98420.56
2022-12-05T15:47:57.314Z,98416.72
2022-12-05T15:51:01.918Z,98421.95
2022-12-05T15:54:13.427Z,98424.50
2022-12-05T15:57:22.930Z,98427.38
2022-12-05T16:00:28.504Z,98429.64
2022-12-05T16:03:47.266Z,98424.00
2022-12-05T16:06:54.999Z,98430.64
2022-12-05T16:09:59.819Z,98431.42
2022-12-05T16:13:06.686Z,98426.40
2022-12-05T16:16:16.599Z,98424.72
2022-12-05T16:19:23.001Z,98427.27
2022-12-05T16:22:28.687Z,98429.44
2022-12-05T16:25:34.982Z,98429.10
2022-12-05T16:28:39.137Z,98427.21
2022-12-05T16:31:43.838Z,98431.04
2022-12-05T16:34:47.742Z,98423.61
2022-12-05T16:37:50.966Z,98428.06
2022-12-05T16:41:01.910Z,98426.04
2022-12-05T16:44:25.826Z,98427.98
2022-12-05T16:47:41.167Z,98424.41
2022-12-05T16:50:44.548Z,98417.15
2022-12-05T16:53:54.604Z,98417.95
2022-12-05T16:56:59.553Z,98415.61
2022-12-05T17:00:06.213Z,98418.71
2022-12-05T17:03:33.529Z,98418.47
2022-12-05T17:06:36.387Z,98415.52
2022-12-05T17:09:39.332Z,98423.65
2022-12-05T17:12:47.527Z,98432.30
2022-12-05T17:15:51.195Z,98429.41
2022-12-05T17:18:54.329Z,98433.04
2022-12-05T17:21:57.494Z,98429.38
2022-12-05T17:25:01.196Z,98426.81
2022-12-05T17:28:09.547Z,98424.11
2022-12-05T17:31:14.803Z,98429.19
2022-12-05T17:34:18.569Z,98426.92
2022-12-05T17:37:22.020Z,98429.67
2022-12-05T17:40:25.125Z,98432.41
2022-12-05T17:43:28.216Z,98434.68
2022-12-05T17:46:34.367Z,98436.08
2022-12-05T17:49:37.738Z,98436.59
2022-12-05T17:52:41.675Z,98439.66
2022-12-05T17:55:49.823Z,98436.58
2022-12-05T17:58:52.845Z,98435.44
2022-12-05T18:01:56.481Z,98440.52
2022-12-05T18:04:59.696Z,98435.41
2022-12-05T18:08:03.407Z,98435.03
2022-12-05T18:11:06.993Z,98432.57
2022-12-05T18:14:10.495Z,98428.91
2022-12-05T18:17:13.751Z,98433.60
2022-12-05T18:20:16.830Z,98431.34
2022-12-05T18:23:56.904Z,98430.16
2022-12-05T18:26:58.753Z,98433.17
2022-12-05T18:30:02.208Z,98429.44
2022-12-05T18:33:03.887Z,98428.21
2022-12-05T18:36:11.765Z,98426.95
2022-12-05T18:39:14.017Z,98429.09
2022-12-05T18:42:15.678Z,98427.16
2022-12-05T18:45:17.415Z,98433.94
2022-12-05T18:48:38.802Z,98435.76
2022-12-05T18:51:40.793Z,98435.30
2022-12-05T18:54:42.335Z,98430.99
2022-12-05T18:57:43.981Z,98430.23
2022-12-05T19:00:48.897Z,98426.23
2022-12-05T19:03:50.657Z,98424.63
2022-12-05T19:06:55.409Z,98419.33
2022-12-05T19:09:57.015Z,98415.66
2022-12-05T19:12:58.631Z,98411.55
2022-12-05T19:16:04.756Z,98412.34
2022-12-05T19:19:08.419Z,98408.27
2022-12-05T19:22:10.043Z,98415.71
2022-12-05T19:25:11.580Z,98416.28
2022-12-05T19:28:13.770Z,98419.55
2022-12-05T19:31:16.723Z,98418.60
2022-12-05T19:34:18.565Z,98415.23
2022-12-05T19:37:20.228Z,98414.59
2022-12-05T19:40:21.962Z,98418.95
2022-12-05T19:43:23.574Z,98421.42
2022-12-05T19:46:30.037Z,98427.44
2022-12-05T19:49:31.690Z,98423.67
2022-12-05T19:52:33.314Z,98422.59
2022-12-05T19:55:34.928Z,98424.38
2022-12-05T19:58:37.641Z,98418.52
2022-12-05T20:01:39.743Z,98417.57
2022-12-05T20:04:42.444Z,98419.75
2022-12-05T20:07:44.079Z,98415.38
2022-12-05T20:10:45.670Z,98411.38
2022-12-05T20:13:48.059Z,98412.15
2022-12-05T20:16:50.185Z,98412.21
2022-12-05T20:19:51.846Z,98411.29
2022-12-05T20:22:53.342Z,98410.17
2022-12-05T20:26:00.493Z,98410.02
2022-12-05T20:29:05.027Z,98405.56
2022-12-05T20:32:06.780Z,98410.46
2022-12-05T20:35:10.851Z,98413.64
2022-12-05T20:38:13.447Z,98416.30
2022-12-05T20:41:17.724Z,98414.72
2022-12-05T20:44:19.562Z,98414.55
2022-12-05T20:47:21.477Z,98417.98
2022-12-05T20:50:23.272Z,98414.38
2022-12-05T20:53:25.014Z,98413.28
2022-12-05T20:56:29.154Z,98417.80
2022-12-05T20:59:30.895Z,98413.73
2022-12-05T21:02:32.741Z,98408.27
2022-12-05T21:05:34.762Z,98404.14
2022-12-05T21:08:36.605Z,98402.51
2022-12-05T21:11:38.184Z,98400.55
2022-12-05T21:14:39.927Z,98400.16
2022-12-05T21:17:41.674Z,98398.52
2022-12-05T21:20:43.315Z,98400.76
2022-12-05T21:23:47.550Z,98401.46
2022-12-05T21:26:50.136Z,98400.85
2022-12-05T21:29:51.791Z,98396.88
2022-12-05T21:32:54.490Z,98392.81
2022-12-05T21:35:56.358Z,98394.83
2022-12-05T21:38:58.701Z,98397.77
2022-12-05T21:42:00.330Z,98396.75
2022-12-05T21:45:02.136Z,98395.20
2022-12-05T21:48:04.167Z,98391.86
2022-12-05T21:51:07.447Z,98387.57
2022-12-05T21:54:09.315Z,98382.67
2022-12-05T21:57:11.126Z,98381.04
2022-12-05T22:00:13.401Z,98380.10
2022-12-05T22:03:15.193Z,98377.76
2022-12-05T22:06:18.196Z,98377.30
2022-12-05T22:09:19.904Z,98378.70
2022-12-05T22:12:21.795Z,98379.27
2022-12-05T22:15:23.684Z,98373.09
2022-12-05T22:18:25.664Z,98371.16
2022-12-05T22:21:27.809Z,98367.62
2022-12-05T22:24:29.381Z,98365.53
2022-12-05T22:27:31.043Z,98366.86
2022-12-05T22:30:32.629Z,98362.72
2022-12-05T22:33:36.075Z,98361.33
2022-12-05T22:36:38.134Z,98357.97
2022-12-05T22:39:41.622Z,98353.84
2022-12-05T22:42:43.340Z,98351.52
2022-12-05T22:45:45.010Z,98354.95
2022-12-05T22:48:48.576Z,98353.45
2022-12-05T22:51:50.314Z,98354.02
2022-12-05T22:54:51.963Z,98351.98
2022-12-05T22:57:53.685Z,98343.83
2022-12-05T23:00:55.519Z,98338.83
2022-12-05T23:03:59.900Z,98333.99
2022-12-05T23:07:21.436Z,98331.41
2022-12-05T23:10:23.491Z,98330.73
2022-12-05T23:13:24.980Z,98329.70
2022-12-05T23:16:28.669Z,98327.11
2022-12-05T23:19:30.212Z,98324.08
2022-12-05T23:22:32.841Z,98318.32
2022-12-05T23:25:34.335Z,98312.85
2022-12-05T23:28:36.712Z,98309.96
2022-12-05T23:31:38.690Z,98307.24
2022-12-05T23:34:40.286Z,98303.50
2022-12-05T23:37:41.837Z,98299.75
2022-12-05T23:40:43.287Z,98297.89
2022-12-05T23:43:46.809Z,98288.38
2022-12-05T23:46:48.454Z,98291.90
2022-12-05T23:49:49.980Z,98287.07
2022-12-05T23:52:51.445Z,98282.32
2022-12-05T23:55:53.033Z,98281.84
2022-12-05T23:58:55.662Z,98279.66
